Time;durP1;ratioP1;P1;durP2;ratioP2;P2;SDS_P1;SDS_P2;PMS_P1;PMS_P2;Temp;Humidity;BMP_temperature;BMP_pressure;BME280_temperature;BME280_humidity;BME280_pressure;Samples;Min_cycle;Max_cycle;Signal;HPM_P1;HPM_P2
2022/06/27 00:00:34;;;;;;;;;;;;;;;21.84;66.36;99612.34;5015827;28;19925;-69
2022/06/27 00:03:03;;;;;;;;;;;;;;;21.71;66.65;99606.06;5015792;28;19921;-70
2022/06/27 00:05:35;;;;;;;;;;;;;;;21.48;67.61;99611.47;5015391;28;19957;-70
2022/06/27 00:08:04;;;;;;;;;;;;;;;21.32;68.09;99612.19;5015312;28;19921;-70
2022/06/27 00:10:32;;;;;;;;;;;;;;;21.28;68.64;99612.41;5015630;28;20275;-69
2022/06/27 00:13:03;;;;;;;;;;;;;;;21.32;68.57;99614.78;5015084;28;20083;-70
2022/06/27 00:15:31;;;;;;;;;;;;;;;21.41;68.32;99602.28;5015197;28;19925;-70
2022/06/27 00:18:00;;;;;;;;;;;;;;;21.46;68.08;99605.50;5015474;28;19968;-70
2022/06/27 00:20:29;;;;;;;;;;;;;;;21.50;68.00;99612.28;5015430;28;19921;-70
2022/06/27 00:25:42;;;;;;;;;;;;;;;21.56;67.72;99606.78;5015054;28;19921;-70
2022/06/27 00:28:13;;;;;;;;;;;;;;;21.54;67.78;99613.81;5014937;28;19977;-70
2022/06/27 00:30:41;;;;;;;;;;;;;;;21.51;67.46;99608.75;5015254;28;20394;-69
2022/06/27 00:33:10;;;;;;;;;;;;;;;21.48;67.33;99608.88;5015506;28;19968;-70
2022/06/27 00:35:39;;;;;;;;;;;;;;;21.47;67.17;99628.00;5014794;28;19921;-69
2022/06/27 00:38:08;;;;;;;;;;;;;;;21.45;66.79;99620.25;5014308;28;19922;-70
2022/06/27 00:40:37;;;;;;;;;;;;;;;21.38;67.11;99611.91;5014746;28;19928;-70
2022/06/27 00:43:06;;;;;;;;;;;;;;;21.32;67.25;99619.13;5014708;28;19921;-70
2022/06/27 00:45:36;;;;;;;;;;;;;;;21.28;67.52;99623.63;5014637;28;19921;-70
2022/06/27 00:48:17;;;;;;;;;;;;;;;21.28;67.19;99618.41;5014879;28;19921;-70
2022/06/27 00:50:46;;;;;;;;;;;;;;;21.23;67.24;99620.41;5014672;28;19921;-69
2022/06/27 00:53:16;;;;;;;;;;;;;;;21.23;67.49;99619.56;5013424;28;20363;-69
2022/06/27 00:55:44;;;;;;;;;;;;;;;21.19;67.62;99612.81;5014816;28;19922;-69
2022/06/27 00:58:13;;;;;;;;;;;;;;;21.18;67.41;99621.50;5014462;28;19922;-70
2022/06/27 01:00:44;;;;;;;;;;;;;;;21.12;67.59;99622.63;5014775;28;20382;-70
2022/06/27 01:03:13;;;;;;;;;;;;;;;21.11;67.67;99618.38;5013624;28;20375;-70
2022/06/27 01:05:51;;;;;;;;;;;;;;;21.12;67.75;99620.03;5014625;28;19921;-70
2022/06/27 01:08:20;;;;;;;;;;;;;;;21.06;68.13;99612.53;5014326;28;19921;-69
2022/06/27 01:10:49;;;;;;;;;;;;;;;21.02;68.35;99610.94;5013150;28;19921;-69
2022/06/27 01:13:18;;;;;;;;;;;;;;;20.94;68.48;99623.41;5025104;28;19928;-69
2022/06/27 01:15:48;;;;;;;;;;;;;;;20.86;68.72;99620.31;5034283;28;19921;-70
2022/06/27 01:18:16;;;;;;;;;;;;;;;20.83;68.83;99623.03;5033991;28;19928;-70
2022/06/27 01:20:46;;;;;;;;;;;;;;;20.73;69.19;99618.31;5032733;28;19959;-69
2022/06/27 01:23:16;;;;;;;;;;;;;;;20.57;69.68;99618.09;5016670;28;19921;-70
2022/06/27 01:25:45;;;;;;;;;;;;;;;20.44;69.96;99612.59;5034035;28;20317;-69
2022/06/27 01:28:13;;;;;;;;;;;;;;;20.53;70.03;99611.38;5033814;28;20386;-70
2022/06/27 01:30:42;;;;;;;;;;;;;;;20.58;69.95;99610.28;5034148;28;20345;-69
2022/06/27 01:33:11;;;;;;;;;;;;;;;20.64;69.71;99611.75;5016247;28;19921;-70
2022/06/27 01:35:39;;;;;;;;;;;;;;;20.61;69.47;99604.94;5033883;28;19930;-69
2022/06/27 01:38:08;;;;;;;;;;;;;;;20.64;69.65;99611.75;5016252;28;20426;-69
2022/06/27 01:40:39;;;;;;;;;;;;;;;20.64;69.35;99615.19;5016165;28;19928;-69
2022/06/27 01:43:09;;;;;;;;;;;;;;;20.66;69.51;99609.94;5033855;28;20374;-69
2022/06/27 01:45:40;;;;;;;;;;;;;;;20.69;69.29;99607.22;5016437;28;20287;-69
2022/06/27 01:48:10;;;;;;;;;;;;;;;20.65;69.26;99603.06;5033620;28;20055;-70
2022/06/27 01:50:43;;;;;;;;;;;;;;;20.64;69.47;99603.97;5036912;28;19943;-70
2022/06/27 01:53:11;;;;;;;;;;;;;;;20.64;69.42;99599.63;5020093;28;19928;-70
2022/06/27 01:55:41;;;;;;;;;;;;;;;20.64;69.54;99603.97;5020013;28;19994;-69
2022/06/27 01:58:11;;;;;;;;;;;;;;;20.62;69.71;99605.78;5019984;28;19925;-70
2022/06/27 02:00:40;;;;;;;;;;;;;;;20.61;69.94;99609.31;5019942;28;19951;-69
2022/06/27 02:03:08;;;;;;;;;;;;;;;20.42;70.29;99611.00;5037765;28;20325;-69
2022/06/27 02:05:41;;;;;;;;;;;;;;;20.34;70.25;99610.47;5020178;28;19986;-70
2022/06/27 02:08:10;;;;;;;;;;;;;;;20.28;70.71;99601.19;5038037;28;20015;-69
2022/06/27 02:10:38;;;;;;;;;;;;;;;20.11;71.03;99602.75;5019637;28;19921;-70
2022/06/27 02:13:08;;;;;;;;;;;;;;;20.08;71.24;99607.13;5037210;28;19967;-69
2022/06/27 02:15:37;;;;;;;;;;;;;;;19.94;71.31;99619.81;5019917;28;20362;-69
2022/06/27 02:18:06;;;;;;;;;;;;;;;19.85;71.65;99620.19;5019515;28;19921;-70
2022/06/27 02:20:36;;;;;;;;;;;;;;;19.72;71.97;99621.56;5019943;28;19921;-70
2022/06/27 02:23:05;;;;;;;;;;;;;;;19.56;72.16;99622.19;5019711;28;20024;-70
2022/06/27 02:25:33;;;;;;;;;;;;;;;19.45;72.74;99625.22;5037330;28;20023;-70
2022/06/27 02:28:02;;;;;;;;;;;;;;;19.48;72.96;99622.50;5036864;28;19921;-69
2022/06/27 02:30:32;;;;;;;;;;;;;;;19.60;72.79;99619.47;5037240;28;20004;-69
2022/06/27 02:33:04;;;;;;;;;;;;;;;19.64;72.62;99617.56;5036974;28;19927;-70
2022/06/27 02:35:38;;;;;;;;;;;;;;;19.68;72.86;99619.13;5036895;28;19925;-70
2022/06/27 02:38:08;;;;;;;;;;;;;;;19.82;72.53;99617.69;5037239;28;19987;-69
2022/06/27 02:40:37;;;;;;;;;;;;;;;19.88;72.35;99622.66;5036809;28;19920;-69
2022/06/27 02:43:07;;;;;;;;;;;;;;;19.88;72.23;99617.47;5036773;28;19967;-69
2022/06/27 02:45:37;;;;;;;;;;;;;;;19.89;72.43;99624.31;5019328;28;20371;-69
2022/06/27 02:48:08;;;;;;;;;;;;;;;19.94;72.20;99622.41;5018955;28;19928;-69
2022/06/27 02:50:39;;;;;;;;;;;;;;;20.05;71.99;99634.94;5018897;28;20019;-70
2022/06/27 02:53:12;;;;;;;;;;;;;;;20.09;71.77;99626.13;5036938;28;19921;-70
2022/06/27 02:55:51;;;;;;;;;;;;;;;20.17;71.91;99625.81;5035685;28;20390;-71
2022/06/27 02:58:27;;;;;;;;;;;;;;;20.26;71.43;99628.06;5035318;28;19975;-70
2022/06/27 03:01:03;;;;;;;;;;;;;;;20.26;71.46;99628.91;5018266;28;20007;-70
2022/06/27 03:03:36;;;;;;;;;;;;;;;20.25;70.95;99636.75;5018766;28;19925;-70
2022/06/27 03:06:06;;;;;;;;;;;;;;;20.24;71.30;99632.47;5019006;28;20363;-70
2022/06/27 03:08:38;;;;;;;;;;;;;;;20.24;71.04;99624.69;5018641;28;19943;-70
2022/06/27 03:11:11;;;;;;;;;;;;;;;20.23;71.13;99631.63;5035131;28;19928;-70
2022/06/27 03:13:43;;;;;;;;;;;;;;;20.27;71.18;99641.00;5035394;28;19921;-70
2022/06/27 03:16:14;;;;;;;;;;;;;;;20.27;71.01;99645.31;5018559;28;20019;-70
2022/06/27 03:18:43;;;;;;;;;;;;;;;20.30;71.28;99640.03;5018890;28;19920;-70
2022/06/27 03:21:26;;;;;;;;;;;;;;;20.21;71.17;99641.19;5036405;28;19927;-70
2022/06/27 03:24:04;;;;;;;;;;;;;;;20.14;71.34;99638.91;5018736;28;19921;-69
2022/06/27 03:26:33;;;;;;;;;;;;;;;20.14;71.46;99644.94;5018322;28;19921;-70
2022/06/27 03:29:03;;;;;;;;;;;;;;;20.22;71.12;99647.22;5018468;28;19992;-70
2022/06/27 03:31:44;;;;;;;;;;;;;;;20.27;71.05;99650.50;5018400;28;20376;-69
2022/06/27 03:34:17;;;;;;;;;;;;;;;20.31;70.89;99649.47;5035831;28;19971;-70
2022/06/27 03:36:57;;;;;;;;;;;;;;;20.36;70.75;99650.13;5036087;28;20422;-70
2022/06/27 03:39:35;;;;;;;;;;;;;;;20.38;70.45;99649.16;5034418;28;19952;-70
2022/06/27 03:42:04;;;;;;;;;;;;;;;20.44;70.25;99653.25;5018005;28;19921;-70
2022/06/27 03:44:33;;;;;;;;;;;;;;;20.47;70.17;99653.09;5035577;28;19971;-69
2022/06/27 03:47:06;;;;;;;;;;;;;;;20.53;70.22;99658.06;5036469;28;20310;-70
2022/06/27 03:50:02;;;;;;;;;;;;;;;20.58;70.22;99656.97;5034756;28;20405;-70
2022/06/27 03:52:35;;;;;;;;;;;;;;;20.61;70.11;99658.59;5018087;28;20011;-69
2022/06/27 03:55:08;;;;;;;;;;;;;;;20.65;70.18;99658.41;5018004;28;20366;-70
2022/06/27 03:57:38;;;;;;;;;;;;;;;20.70;70.17;99646.06;5035678;28;20291;-70
2022/06/27 04:00:09;;;;;;;;;;;;;;;20.75;69.77;99656.25;5034400;28;20322;-70
2022/06/27 04:02:42;;;;;;;;;;;;;;;20.77;69.97;99657.03;5035640;28;19987;-70
2022/06/27 04:05:22;;;;;;;;;;;;;;;20.85;69.83;99657.53;5035557;28;20282;-70
2022/06/27 04:07:51;;;;;;;;;;;;;;;20.89;69.82;99660.84;5033991;28;19921;-69
2022/06/27 04:10:22;;;;;;;;;;;;;;;20.93;69.71;99652.84;5034192;28;19921;-70
2022/06/27 04:12:54;;;;;;;;;;;;;;;20.99;69.53;99659.53;5016371;28;19928;-70
2022/06/27 04:15:40;;;;;;;;;;;;;;;21.06;69.43;99648.03;5034995;28;19956;-70
2022/06/27 04:18:21;;;;;;;;;;;;;;;21.12;69.63;99648.59;5034921;28;20046;-69
2022/06/27 04:21:04;;;;;;;;;;;;;;;21.18;69.81;99656.13;5034908;28;19921;-70
2022/06/27 04:23:46;;;;;;;;;;;;;;;21.30;69.90;99652.97;5035211;28;19952;-70
2022/06/27 04:26:17;;;;;;;;;;;;;;;21.43;69.88;99660.22;5033682;28;19928;-70
2022/06/27 04:28:47;;;;;;;;;;;;;;;21.52;69.59;99662.38;5033564;28;19968;-69
2022/06/27 04:31:17;;;;;;;;;;;;;;;21.63;69.77;99662.72;5033597;28;19921;-69
2022/06/27 04:33:47;;;;;;;;;;;;;;;21.73;69.58;99656.19;5016960;28;19925;-70
2022/06/27 04:36:16;;;;;;;;;;;;;;;21.84;69.38;99653.94;5033462;28;19925;-70
2022/06/27 04:38:46;;;;;;;;;;;;;;;21.96;69.05;99663.78;5033397;28;19979;-70
2022/06/27 04:41:35;;;;;;;;;;;;;;;22.12;68.70;99659.56;5021166;28;20425;-70
2022/06/27 04:44:04;;;;;;;;;;;;;;;22.27;68.45;99652.75;5033382;28;19928;-69
2022/06/27 04:46:42;;;;;;;;;;;;;;;22.37;68.30;99654.84;5017155;28;19924;-69
2022/06/27 04:49:12;;;;;;;;;;;;;;;22.49;67.96;99655.97;5034325;28;19925;-70
2022/06/27 04:51:43;;;;;;;;;;;;;;;22.59;67.69;99650.25;5033675;28;19927;-70
2022/06/27 04:54:12;;;;;;;;;;;;;;;22.72;67.31;99649.69;5016913;28;19986;-70
2022/06/27 04:56:41;;;;;;;;;;;;;;;22.85;66.74;99653.31;5034264;28;19948;-70
2022/06/27 04:59:13;;;;;;;;;;;;;;;22.90;66.07;99654.78;5034278;28;19928;-70
2022/06/27 05:01:53;;;;;;;;;;;;;;;22.94;65.53;99652.88;5017037;28;19956;-70
2022/06/27 05:04:24;;;;;;;;;;;;;;;23.02;65.04;99658.50;5034181;28;19928;-71
2022/06/27 05:06:55;;;;;;;;;;;;;;;23.10;64.73;99651.16;5033422;28;19924;-71
2022/06/27 05:09:24;;;;;;;;;;;;;;;23.21;64.55;99654.03;5034115;28;19963;-70
2022/06/27 05:11:54;;;;;;;;;;;;;;;23.38;64.24;99656.59;5013014;28;19928;-71
2022/06/27 05:14:26;;;;;;;;;;;;;;;23.50;63.97;99642.91;5029641;28;19929;-70
2022/06/27 05:16:57;;;;;;;;;;;;;;;23.64;63.55;99647.38;5013265;28;19925;-70
2022/06/27 05:19:31;;;;;;;;;;;;;;;23.73;63.40;99641.69;5029561;28;19922;-69
2022/06/27 05:22:04;;;;;;;;;;;;;;;23.86;62.78;99647.88;5013344;28;19928;-70
2022/06/27 05:24:36;;;;;;;;;;;;;;;23.96;62.47;99652.53;5013112;28;19921;-70
2022/06/27 05:27:05;;;;;;;;;;;;;;;24.10;62.04;99656.97;5030114;28;20330;-70
2022/06/27 05:29:34;;;;;;;;;;;;;;;24.30;61.78;99648.88;5013933;28;19971;-70
2022/06/27 05:32:06;;;;;;;;;;;;;;;24.37;61.66;99650.19;5029780;28;20020;-70
2022/06/27 05:34:37;;;;;;;;;;;;;;;24.55;61.45;99654.34;5029404;28;20437;-70
2022/06/27 05:37:06;;;;;;;;;;;;;;;24.70;60.94;99656.97;5029398;28;19921;-70
2022/06/27 05:39:40;;;;;;;;;;;;;;;24.79;60.49;99653.84;5014387;28;20348;-70
2022/06/27 05:42:11;;;;;;;;;;;;;;;24.95;60.57;99652.88;5029409;28;19925;-70
2022/06/27 05:44:41;;;;;;;;;;;;;;;25.02;60.05;99654.19;5012855;28;19973;-71
2022/06/27 05:47:10;;;;;;;;;;;;;;;25.18;59.52;99649.72;5012849;28;19921;-70
2022/06/27 05:49:49;;;;;;;;;;;;;;;25.29;58.83;99649.88;5012816;28;19929;-70
2022/06/27 05:52:17;;;;;;;;;;;;;;;25.45;58.15;99657.66;5029639;28;19925;-70
2022/06/27 05:54:46;;;;;;;;;;;;;;;25.59;57.65;99659.41;5013050;28;20397;-70
2022/06/27 05:57:19;;;;;;;;;;;;;;;25.69;57.12;99656.13;5029538;28;19921;-70
2022/06/27 05:59:47;;;;;;;;;;;;;;;25.82;56.58;99656.19;5013092;28;20327;-71
2022/06/27 06:02:16;;;;;;;;;;;;;;;25.94;56.17;99655.41;5013878;28;19921;-70
2022/06/27 06:04:44;;;;;;;;;;;;;;;26.03;55.80;99652.22;5029381;28;20059;-70
2022/06/27 06:07:17;;;;;;;;;;;;;;;26.15;55.59;99654.06;5029562;28;19921;-71
2022/06/27 06:09:46;;;;;;;;;;;;;;;26.27;54.57;99655.88;5012461;28;19968;-70
2022/06/27 06:12:14;;;;;;;;;;;;;;;26.40;54.63;99659.38;5027735;28;19961;-70
2022/06/27 06:14:49;;;;;;;;;;;;;;;26.40;53.78;99659.38;5027812;28;19921;-70
2022/06/27 06:17:17;;;;;;;;;;;;;;;26.53;54.23;99656.78;5029037;28;19921;-71
2022/06/27 06:19:46;;;;;;;;;;;;;;;26.67;54.15;99655.84;5029248;28;19928;-70
2022/06/27 06:22:25;;;;;;;;;;;;;;;26.78;54.60;99661.25;5028892;28;20434;-70
2022/06/27 06:24:54;;;;;;;;;;;;;;;26.87;53.89;99664.09;5029285;28;20331;-71
2022/06/27 06:27:31;;;;;;;;;;;;;;;26.90;53.26;99665.66;5013900;28;19972;-71
2022/06/27 06:30:02;;;;;;;;;;;;;;;26.99;53.35;99667.66;5028808;28;19948;-70
2022/06/27 06:32:34;;;;;;;;;;;;;;;27.10;53.01;99670.38;5012152;28;20363;-69
2022/06/27 06:35:03;;;;;;;;;;;;;;;27.15;52.73;99663.88;4995927;28;19929;-69
2022/06/27 06:37:33;;;;;;;;;;;;;;;27.18;52.29;99660.22;4976845;28;19922;-70
2022/06/27 06:40:03;;;;;;;;;;;;;;;27.28;52.09;99666.50;4977957;28;19922;-69
2022/06/27 06:42:33;;;;;;;;;;;;;;;27.35;51.72;99675.63;4976732;28;19926;-69
2022/06/27 06:45:25;;;;;;;;;;;;;;;27.44;51.85;99677.63;4967865;28;20295;-70
2022/06/27 06:48:02;;;;;;;;;;;;;;;27.49;51.01;99688.63;4978146;28;20323;-70
2022/06/27 06:50:32;;;;;;;;;;;;;;;27.39;51.39;99682.34;4976612;28;19922;-69
2022/06/27 06:53:04;;;;;;;;;;;;;;;27.56;51.17;99679.38;4977660;28;20008;-70
2022/06/27 06:55:32;;;;;;;;;;;;;;;27.71;51.04;99672.22;4978126;28;20028;-69
2022/06/27 06:58:01;;;;;;;;;;;;;;;27.59;50.54;99673.09;4977651;28;19964;-69
2022/06/27 07:00:30;;;;;;;;;;;;;;;27.65;50.43;99677.88;4977575;28;19980;-69
2022/06/27 07:03:02;;;;;;;;;;;;;;;27.63;50.27;99680.63;4977789;28;19929;-69
2022/06/27 07:05:31;;;;;;;;;;;;;;;27.81;50.40;99679.31;4977553;28;19921;-69
2022/06/27 07:08:05;;;;;;;;;;;;;;;27.98;50.01;99674.66;4977499;28;19965;-70
2022/06/27 07:10:33;;;;;;;;;;;;;;;28.05;49.97;99675.91;4977340;28;19929;-69
2022/06/27 07:13:03;;;;;;;;;;;;;;;28.13;49.92;99687.53;5005915;28;19964;-69
2022/06/27 07:15:33;;;;;;;;;;;;;;;28.23;50.15;99682.44;5016428;28;19921;-69
2022/06/27 07:18:04;;;;;;;;;;;;;;;28.26;49.58;99676.97;5016476;28;20295;-69
2022/06/27 07:20:34;;;;;;;;;;;;;;;28.40;49.42;99671.53;5017239;28;20359;-70
2022/06/27 07:23:04;;;;;;;;;;;;;;;28.50;49.20;99683.03;5016509;28;19987;-69
2022/06/27 07:25:36;;;;;;;;;;;;;;;28.45;48.60;99686.00;5016499;28;19947;-69
2022/06/27 07:28:06;;;;;;;;;;;;;;;28.44;48.91;99688.72;5014663;28;19921;-70
2022/06/27 07:30:35;;;;;;;;;;;;;;;28.59;49.16;99682.34;5034136;28;20011;-69
2022/06/27 07:33:04;;;;;;;;;;;;;;;28.79;48.72;99687.00;5035820;28;19956;-69
2022/06/27 07:35:33;;;;;;;;;;;;;;;28.91;47.81;99688.69;5035981;28;19967;-66
2022/06/27 07:38:02;;;;;;;;;;;;;;;28.86;47.01;99690.81;5035886;28;19921;-68
2022/06/27 07:40:34;;;;;;;;;;;;;;;28.84;46.69;99692.69;5035678;28;19925;-71
2022/06/27 07:43:03;;;;;;;;;;;;;;;28.83;46.39;99690.19;5034214;28;20349;-68
2022/06/27 07:45:31;;;;;;;;;;;;;;;28.95;46.84;99689.28;5035734;28;19990;-68
2022/06/27 07:48:00;;;;;;;;;;;;;;;29.04;46.42;99688.56;5035665;28;19931;-69
2022/06/27 07:50:38;;;;;;;;;;;;;;;29.12;46.59;99680.94;5035794;28;19921;-69
2022/06/27 07:53:13;;;;;;;;;;;;;;;29.33;46.19;99688.97;5035461;28;19924;-69
2022/06/27 07:55:46;;;;;;;;;;;;;;;29.38;45.61;99679.78;5035768;28;19928;-69
2022/06/27 07:58:26;;;;;;;;;;;;;;;29.40;44.62;99684.91;5035683;28;20020;-67
2022/06/27 08:00:54;;;;;;;;;;;;;;;29.38;44.69;99698.19;5035308;28;19967;-67
2022/06/27 08:06:05;;;;;;;;;;;;;;;29.40;44.84;99696.28;5035488;28;19920;-69
2022/06/27 08:08:36;;;;;;;;;;;;;;;29.51;44.77;99698.09;5035732;28;20310;-67
2022/06/27 08:11:07;;;;;;;;;;;;;;;29.52;44.39;99690.06;5035084;28;20385;-69
2022/06/27 08:13:36;;;;;;;;;;;;;;;29.66;44.08;99691.59;5034927;28;19921;-68
2022/06/27 08:16:05;;;;;;;;;;;;;;;29.76;44.19;99684.66;5034908;28;19921;-69
2022/06/27 08:18:38;;;;;;;;;;;;;;;29.93;44.04;99680.69;5035204;28;20370;-69
2022/06/27 08:21:08;;;;;;;;;;;;;;;29.94;43.74;99683.22;5034969;28;20303;-67
2022/06/27 08:23:38;;;;;;;;;;;;;;;29.99;43.89;99699.50;5034768;28;19921;-66
2022/06/27 08:26:09;;;;;;;;;;;;;;;29.89;43.69;99693.28;5034796;28;19975;-68
2022/06/27 08:28:38;;;;;;;;;;;;;;;29.94;43.45;99696.41;5035126;28;19921;-68
2022/06/27 08:31:07;;;;;;;;;;;;;;;29.99;43.25;99699.50;5034824;28;19943;-68
2022/06/27 08:33:37;;;;;;;;;;;;;;;30.04;43.18;99696.50;5035058;28;19921;-69
2022/06/27 08:36:06;;;;;;;;;;;;;;;30.15;43.09;99705.19;5034093;28;20371;-67
2022/06/27 08:38:42;;;;;;;;;;;;;;;30.19;42.73;99700.50;5034561;28;19921;-66
2022/06/27 08:41:13;;;;;;;;;;;;;;;30.31;42.48;99704.75;5034456;28;19921;-65
2022/06/27 08:43:42;;;;;;;;;;;;;;;30.44;42.39;99697.56;5034798;28;20306;-65
2022/06/27 08:46:13;;;;;;;;;;;;;;;30.60;41.97;99702.41;5034449;28;19929;-66
2022/06/27 08:48:45;;;;;;;;;;;;;;;30.71;41.30;99702.38;5016802;28;20333;-66
2022/06/27 08:51:14;;;;;;;;;;;;;;;30.78;41.30;99692.97;5034308;28;19947;-66
2022/06/27 08:53:43;;;;;;;;;;;;;;;30.92;41.44;99700.59;5034639;28;19990;-66
2022/06/27 08:56:14;;;;;;;;;;;;;;;31.01;41.11;99700.66;5034126;28;19927;-68
2022/06/27 08:58:46;;;;;;;;;;;;;;;31.15;40.53;99696.81;5033582;28;19921;-69
2022/06/27 09:01:15;;;;;;;;;;;;;;;31.31;40.65;99701.66;5034198;28;20063;-66
2022/06/27 09:03:58;;;;;;;;;;;;;;;31.49;40.06;99700.91;5034538;28;20337;-68
2022/06/27 09:06:58;;;;;;;;;;;;;;;31.65;39.77;99708.34;5034488;28;20015;-65
2022/06/27 09:09:27;;;;;;;;;;;;;;;31.67;38.78;99699.31;5034559;28;20370;-68
2022/06/27 09:12:04;;;;;;;;;;;;;;;31.60;39.86;99700.81;5033574;28;19928;-66
2022/06/27 09:14:35;;;;;;;;;;;;;;;31.75;39.57;99702.13;5034368;28;19921;-66
2022/06/27 09:17:04;;;;;;;;;;;;;;;31.79;39.73;99700.88;5034045;28;19967;-66
2022/06/27 09:19:49;;;;;;;;;;;;;;;31.75;39.26;99699.47;5033972;28;19971;-68
2022/06/27 09:22:19;;;;;;;;;;;;;;;31.73;39.18;99697.94;5017016;28;20317;-68
2022/06/27 09:25:01;;;;;;;;;;;;;;;31.69;39.80;99707.94;5033968;28;19921;-66
2022/06/27 09:27:38;;;;;;;;;;;;;;;31.68;39.39;99703.63;5033972;28;19921;-67
2022/06/27 09:30:17;;;;;;;;;;;;;;;31.64;39.46;99702.22;5033845;28;20003;-66
2022/06/27 09:32:51;;;;;;;;;;;;;;;31.60;39.61;99698.16;5033790;28;20417;-68
2022/06/27 09:35:23;;;;;;;;;;;;;;;31.49;39.25;99706.19;5034208;28;19952;-67
2022/06/27 09:37:53;;;;;;;;;;;;;;;31.32;39.97;99704.13;5033831;28;19921;-67
2022/06/27 09:40:23;;;;;;;;;;;;;;;31.21;39.50;99706.88;5033714;28;19925;-67
2022/06/27 09:42:57;;;;;;;;;;;;;;;31.20;39.97;99699.91;5034115;28;20279;-67
2022/06/27 09:45:27;;;;;;;;;;;;;;;31.18;40.05;99691.31;5033969;28;19923;-70
2022/06/27 09:48:08;;;;;;;;;;;;;;;31.21;39.68;99696.31;5034021;28;20390;-67
2022/06/27 09:50:47;;;;;;;;;;;;;;;31.33;39.78;99684.72;5034034;28;20302;-67
2022/06/27 09:53:17;;;;;;;;;;;;;;;31.49;39.84;99679.81;5033593;28;19991;-67
2022/06/27 09:55:47;;;;;;;;;;;;;;;31.57;39.29;99666.78;5033694;28;19921;-67
2022/06/27 09:58:21;;;;;;;;;;;;;;;31.62;39.32;99674.28;5033611;28;19921;-66
2022/06/27 10:00:50;;;;;;;;;;;;;;;31.51;38.89;99672.59;5033683;28;19921;-68
2022/06/27 10:03:19;;;;;;;;;;;;;;;31.54;38.64;99667.03;5033527;28;19928;-68
2022/06/27 10:05:48;;;;;;;;;;;;;;;31.64;38.47;99675.00;5033808;28;20268;-66
2022/06/27 10:08:17;;;;;;;;;;;;;;;31.69;37.62;99671.00;5033565;28;19921;-66
2022/06/27 10:10:56;;;;;;;;;;;;;;;31.77;37.42;99654.44;5034781;28;20377;-68
2022/06/27 10:13:30;;;;;;;;;;;;;;;31.92;36.68;99663.66;5037127;28;19921;-68
2022/06/27 10:15:58;;;;;;;;;;;;;;;31.99;36.59;99656.03;5037272;28;19964;-68
2022/06/27 10:18:27;;;;;;;;;;;;;;;32.07;36.89;99653.56;5037478;28;20345;-67
2022/06/27 10:20:55;;;;;;;;;;;;;;;32.13;36.83;99659.13;5038013;28;20019;-67
2022/06/27 10:23:28;;;;;;;;;;;;;;;32.13;36.94;99647.75;5037021;28;19921;-65
2022/06/27 10:25:57;;;;;;;;;;;;;;;32.13;37.15;99653.03;5038157;28;20049;-67
2022/06/27 10:28:26;;;;;;;;;;;;;;;32.18;36.70;99656.06;5037030;28;19952;-66
2022/06/27 10:30:57;;;;;;;;;;;;;;;32.18;35.99;99650.78;5019345;28;20313;-67
2022/06/27 10:33:36;;;;;;;;;;;;;;;32.15;35.90;99648.44;5037152;28;20279;-67
2022/06/27 10:36:11;;;;;;;;;;;;;;;32.21;36.65;99655.78;5036920;28;19971;-66
2022/06/27 10:38:47;;;;;;;;;;;;;;;32.12;36.30;99646.06;5037217;28;19999;-68
2022/06/27 10:41:27;;;;;;;;;;;;;;;32.12;36.66;99646.91;5036810;28;19928;-70
2022/06/27 10:43:56;;;;;;;;;;;;;;;32.02;36.40;99650.50;5036822;28;19927;-69
2022/06/27 10:46:36;;;;;;;;;;;;;;;32.01;36.55;99643.56;5036692;28;19921;-70
2022/06/27 10:49:17;;;;;;;;;;;;;;;32.05;37.02;99632.56;5036681;28;19968;-67
2022/06/27 10:51:46;;;;;;;;;;;;;;;32.12;37.46;99636.31;5036721;28;20020;-67
2022/06/27 10:54:15;;;;;;;;;;;;;;;32.24;36.87;99635.22;5036581;28;19925;-68
2022/06/27 10:56:49;;;;;;;;;;;;;;;32.37;36.93;99634.94;5036856;28;19921;-67
2022/06/27 10:59:35;;;;;;;;;;;;;;;32.46;36.28;99634.09;5036491;28;19928;-68
2022/06/27 11:02:10;;;;;;;;;;;;;;;32.46;36.72;99628.81;5036748;28;19983;-67
2022/06/27 11:04:45;;;;;;;;;;;;;;;32.42;36.69;99632.69;5036492;28;19975;-66
2022/06/27 11:07:14;;;;;;;;;;;;;;;32.53;36.42;99624.66;5036644;28;19925;-69
2022/06/27 11:09:43;;;;;;;;;;;;;;;32.66;35.85;99625.16;5036268;28;19924;-67
2022/06/27 11:12:13;;;;;;;;;;;;;;;32.83;35.88;99627.06;5036317;28;20386;-70
2022/06/27 11:14:45;;;;;;;;;;;;;;;32.87;36.04;99617.91;5036338;28;20305;-67
2022/06/27 11:17:34;;;;;;;;;;;;;;;32.82;35.91;99625.44;5036518;28;20015;-67
2022/06/27 11:20:11;;;;;;;;;;;;;;;32.73;35.05;99612.22;5031775;28;20303;-69
2022/06/27 11:23:01;;;;;;;;;;;;;;;32.78;35.94;99608.16;5035692;28;19920;-68
2022/06/27 11:25:30;;;;;;;;;;;;;;;32.85;35.55;99614.53;5036362;28;19936;-67
2022/06/27 11:31:57;;;;;;;;;;;;;;;32.92;35.86;99593.66;5036235;28;19944;-67
2022/06/27 11:33:28;;;;;;;;;;;;;;;33.35;34.45;99601.84;5036447;28;20457;-69
2022/06/27 11:35:58;;;;;;;;;;;;;;;33.34;33.86;99594.88;5035833;28;19925;-68
2022/06/27 11:38:28;;;;;;;;;;;;;;;33.32;33.39;99601.28;5036059;28;19921;-68
2022/06/27 11:41:07;;;;;;;;;;;;;;;33.15;32.56;99594.97;5035917;28;20347;-69
2022/06/27 11:43:46;;;;;;;;;;;;;;;33.18;33.26;99599.13;5036927;28;20355;-70
2022/06/27 11:46:28;;;;;;;;;;;;;;;32.98;33.26;99588.63;5036027;28;20027;-67
2022/06/27 11:49:04;;;;;;;;;;;;;;;33.02;33.54;99591.81;5035589;28;19921;-68
2022/06/27 11:51:36;;;;;;;;;;;;;;;33.09;33.40;99584.97;5035548;28;20462;-68
2022/06/27 11:54:05;;;;;;;;;;;;;;;33.24;33.15;99580.00;5035333;28;20294;-69
2022/06/27 11:56:36;;;;;;;;;;;;;;;33.30;32.59;99576.78;5035462;28;19921;-67
2022/06/27 11:59:05;;;;;;;;;;;;;;;33.35;33.18;99585.13;5035627;28;19984;-67
2022/06/27 12:01:38;;;;;;;;;;;;;;;33.28;32.69;99582.22;5035297;28;19921;-68
2022/06/27 12:04:09;;;;;;;;;;;;;;;33.27;32.52;99579.72;5035188;28;20437;-69
2022/06/27 12:06:46;;;;;;;;;;;;;;;33.38;32.39;99574.25;5035241;28;19956;-67
2022/06/27 12:09:15;;;;;;;;;;;;;;;33.46;32.15;99566.38;5035260;28;19925;-67
2022/06/27 12:11:50;;;;;;;;;;;;;;;33.60;32.40;99571.19;5034671;28;19982;-67
2022/06/27 12:14:20;;;;;;;;;;;;;;;33.65;31.83;99566.28;5035320;28;20309;-69
2022/06/27 12:16:49;;;;;;;;;;;;;;;33.58;32.15;99578.47;5035009;28;19964;-66
2022/06/27 12:19:25;;;;;;;;;;;;;;;33.52;31.23;99573.75;5035265;28;20395;-67
2022/06/27 12:21:58;;;;;;;;;;;;;;;33.60;31.36;99573.84;5034809;28;19921;-68
2022/06/27 12:24:45;;;;;;;;;;;;;;;33.59;32.54;99566.91;5034789;28;19978;-69
2022/06/27 12:27:14;;;;;;;;;;;;;;;33.70;32.55;99564.00;5034774;28;19931;-68
2022/06/27 12:29:42;;;;;;;;;;;;;;;33.73;32.49;99566.38;5017390;28;19925;-68
2022/06/27 12:32:14;;;;;;;;;;;;;;;33.58;32.52;99559.91;5034691;28;19927;-68
2022/06/27 12:34:43;;;;;;;;;;;;;;;33.54;32.67;99558.56;5033973;28;19932;-67
2022/06/27 12:37:13;;;;;;;;;;;;;;;33.52;31.72;99565.78;5034557;28;19928;-68
2022/06/27 12:39:50;;;;;;;;;;;;;;;33.60;31.83;99557.94;5034722;28;19964;-68
2022/06/27 12:42:19;;;;;;;;;;;;;;;33.68;31.97;99563.34;5034861;28;19921;-69
2022/06/27 12:44:48;;;;;;;;;;;;;;;33.78;31.93;99557.97;5034853;28;19921;-67
2022/06/27 12:47:17;;;;;;;;;;;;;;;33.84;31.25;99560.00;5016786;28;20016;-68
2022/06/27 12:49:45;;;;;;;;;;;;;;;33.84;31.35;99550.25;5034993;28;19927;-69
2022/06/27 12:52:16;;;;;;;;;;;;;;;33.83;30.79;99548.59;5034365;28;19925;-69
2022/06/27 12:54:47;;;;;;;;;;;;;;;33.75;30.32;99551.16;5034336;28;19921;-66
2022/06/27 12:57:25;;;;;;;;;;;;;;;33.71;30.32;99550.59;5034659;28;20259;-67
2022/06/27 13:00:00;;;;;;;;;;;;;;;33.71;30.08;99549.81;5034239;28;19928;-67
2022/06/27 13:02:29;;;;;;;;;;;;;;;33.69;29.98;99557.03;5034566;28;19928;-67
2022/06/27 13:05:06;;;;;;;;;;;;;;;33.69;30.50;99557.88;5034164;28;19921;-68
2022/06/27 13:07:37;;;;;;;;;;;;;;;33.70;30.80;99548.13;5034181;28;19927;-67
2022/06/27 13:10:06;;;;;;;;;;;;;;;33.60;30.50;99550.00;5034138;28;20378;-68
2022/06/27 13:12:34;;;;;;;;;;;;;;;33.57;30.76;99552.97;5034046;28;20355;-68
2022/06/27 13:15:03;;;;;;;;;;;;;;;33.59;31.05;99548.34;5034289;28;19925;-67
2022/06/27 13:17:32;;;;;;;;;;;;;;;33.59;31.15;99551.00;5016809;28;19921;-69
2022/06/27 13:20:01;;;;;;;;;;;;;;;33.71;31.66;99549.81;5033937;28;19921;-68